Time;durP1;ratioP1;P1;durP2;ratioP2;P2;SDS_P1;SDS_P2;PMS_P1;PMS_P2;Temp;Humidity;BMP_temperature;BMP_pressure;BME280_temperature;BME280_humidity;BME280_pressure;Samples;Min_cycle;Max_cycle;Signal;HPM_P1;HPM_P2
2024/03/09 00:00:42;;;;;;;35.55;18.83;;;7.30;99.90;;;;;;5009929;28;20036;-77
2024/03/09 00:03:12;;;;;;;36.33;19.02;;;7.20;99.90;;;;;;5028539;28;20098;-78
2024/03/09 00:05:41;;;;;;;37.17;19.73;;;7.20;99.90;;;;;;5026918;28;20078;-77
2024/03/09 00:08:09;;;;;;;36.83;20.30;;;7.00;99.90;;;;;;5025556;28;20022;-77
2024/03/09 00:10:35;;;;;;;38.42;20.15;;;7.10;99.90;;;;;;5008116;28;20025;-77
2024/03/09 00:13:03;;;;;;;34.38;18.20;;;7.20;99.90;;;;;;5007012;28;20032;-77
2024/03/09 00:15:30;;;;;;;37.22;20.35;;;7.20;99.90;;;;;;5020882;28;20375;-77
2024/03/09 00:17:57;;;;;;;35.25;19.10;;;7.20;99.90;;;;;;5024944;28;20493;-78
2024/03/09 00:20:33;;;;;;;31.08;18.58;;;7.20;99.90;;;;;;5023546;28;20100;-78
2024/03/09 00:22:59;;;;;;;37.28;19.58;;;7.20;99.90;;;;;;5023954;28;20041;-78
2024/03/09 00:25:28;;;;;;;37.20;19.33;;;7.10;99.90;;;;;;5003435;28;20014;-79
2024/03/09 00:27:55;;;;;;;32.95;19.10;;;7.10;99.90;;;;;;5025285;28;20030;-79
2024/03/09 00:30:22;;;;;;;33.30;18.75;;;7.10;99.90;;;;;;5025273;28;20033;-78
2024/03/09 00:32:55;;;;;;;36.38;19.92;;;7.00;99.90;;;;;;5023092;28;20052;-79
2024/03/09 00:35:22;;;;;;;35.28;20.08;;;7.00;99.90;;;;;;5024016;28;20145;-77
2024/03/09 00:37:48;;;;;;;35.20;19.73;;;7.00;99.90;;;;;;5022913;28;20030;-78
2024/03/09 00:40:14;;;;;;;34.10;19.27;;;6.90;99.90;;;;;;5026909;28;20028;-77
2024/03/09 00:42:41;;;;;;;36.00;19.38;;;6.90;99.90;;;;;;5025359;28;22482;-77
2024/03/09 00:45:08;;;;;;;34.78;19.95;;;6.90;99.90;;;;;;5006552;28;20108;-78
2024/03/09 00:47:36;;;;;;;33.50;19.15;;;6.80;99.90;;;;;;5028337;28;20032;-77
2024/03/09 00:50:09;;;;;;;35.13;20.15;;;6.70;99.90;;;;;;5026304;28;20017;-78
2024/03/09 00:52:36;;;;;;;34.35;18.55;;;6.70;99.90;;;;;;5027412;28;20112;-79
2024/03/09 00:55:02;;;;;;;33.00;19.13;;;6.70;99.90;;;;;;5026832;28;20025;-78
2024/03/09 00:57:28;;;;;;;33.63;19.02;;;6.60;99.90;;;;;;5026567;28;20033;-77
2024/03/09 00:59:54;;;;;;;34.38;19.05;;;6.60;99.90;;;;;;5028700;28;20022;-76
2024/03/09 01:02:20;;;;;;;34.90;18.88;;;6.60;99.90;;;;;;5010617;28;20030;-77
2024/03/09 01:04:46;;;;;;;38.20;20.10;;;6.70;99.90;;;;;;5007871;28;20045;-77
2024/03/09 01:07:15;;;;;;;38.83;20.98;;;6.60;99.90;;;;;;5026907;28;20052;-76
2024/03/09 01:09:48;;;;;;;33.22;19.67;;;6.70;99.90;;;;;;5026782;28;20026;-77
2024/03/09 01:12:19;;;;;;;37.08;19.77;;;6.60;99.90;;;;;;5028728;28;20025;-77
2024/03/09 01:14:48;;;;;;;34.47;18.33;;;6.60;99.90;;;;;;5024653;28;20367;-77
2024/03/09 01:17:23;;;;;;;35.28;18.67;;;6.50;99.90;;;;;;5025857;28;20025;-77
2024/03/09 01:19:52;;;;;;;37.53;19.10;;;6.60;99.90;;;;;;5025546;28;20593;-77
2024/03/09 01:22:22;;;;;;;36.67;19.38;;;6.60;99.90;;;;;;5025607;28;20038;-77
2024/03/09 01:24:52;;;;;;;38.95;20.58;;;6.60;99.90;;;;;;5007634;28;20111;-77
2024/03/09 01:27:18;;;;;;;38.95;20.42;;;6.50;99.90;;;;;;5023326;28;20493;-76
2024/03/09 01:29:46;;;;;;;36.08;19.15;;;6.50;99.90;;;;;;5023159;28;20041;-76
2024/03/09 01:32:13;;;;;;;34.60;17.77;;;6.50;99.90;;;;;;5021566;28;20029;-77
2024/03/09 01:34:39;;;;;;;42.80;20.40;;;6.50;99.90;;;;;;5024558;28;20910;-77
2024/03/09 01:37:10;;;;;;;41.47;20.75;;;6.50;99.90;;;;;;5024464;28;20116;-76
2024/03/09 01:39:36;;;;;;;38.65;20.13;;;6.50;99.90;;;;;;5025450;28;20470;-77
2024/03/09 01:42:02;;;;;;;43.47;21.38;;;6.50;99.90;;;;;;5024534;28;20028;-77
2024/03/09 01:44:28;;;;;;;38.17;20.02;;;6.50;99.90;;;;;;5023204;28;20022;-76
2024/03/09 01:46:54;;;;;;;37.83;19.75;;;6.40;99.90;;;;;;5022049;28;20014;-77
2024/03/09 01:49:20;;;;;;;40.65;20.58;;;6.40;99.90;;;;;;5019900;28;20679;-77
2024/03/09 01:51:47;;;;;;;38.30;20.00;;;6.40;99.90;;;;;;5022035;28;20034;-77
2024/03/09 01:54:19;;;;;;;37.88;19.63;;;6.30;99.90;;;;;;5022967;28;20505;-77
2024/03/09 01:56:48;;;;;;;38.53;20.70;;;6.30;99.90;;;;;;5022362;28;20022;-77
2024/03/09 01:59:17;;;;;;;39.03;20.30;;;6.30;99.90;;;;;;5024318;28;20022;-78
2024/03/09 02:01:45;;;;;;;40.80;20.40;;;6.40;99.90;;;;;;5023554;28;20022;-77
2024/03/09 02:04:11;;;;;;;43.50;22.65;;;6.40;99.90;;;;;;5021712;28;20040;-77
2024/03/09 02:06:40;;;;;;;43.15;19.77;;;6.40;99.90;;;;;;5003162;28;20494;-77
2024/03/09 02:09:08;;;;;;;40.95;19.95;;;6.40;99.90;;;;;;5024643;28;20037;-77
2024/03/09 02:11:42;;;;;;;41.60;21.27;;;6.40;99.90;;;;;;5025803;28;20518;-77
2024/03/09 02:14:08;;;;;;;39.42;21.20;;;6.40;99.90;;;;;;5026259;28;20025;-77
2024/03/09 02:16:34;;;;;;;38.00;19.77;;;6.40;99.90;;;;;;5008367;28;20022;-77
2024/03/09 02:19:03;;;;;;;43.15;20.48;;;6.40;99.90;;;;;;5006130;28;20040;-77
2024/03/09 02:21:31;;;;;;;40.47;21.77;;;6.50;99.90;;;;;;5024721;28;20489;-77
2024/03/09 02:24:07;;;;;;;40.25;21.75;;;6.40;99.90;;;;;;5007088;28;20033;-76
2024/03/09 02:26:37;;;;;;;37.80;20.38;;;6.50;99.90;;;;;;5021361;28;20021;-77
2024/03/09 02:29:05;;;;;;;37.20;21.55;;;6.50;99.90;;;;;;5006355;28;20099;-77
2024/03/09 02:31:31;;;;;;;40.42;19.77;;;6.60;99.90;;;;;;5002688;28;20028;-77
2024/03/09 02:33:56;;;;;;;40.33;20.98;;;6.50;99.90;;;;;;5025011;28;20037;-77
2024/03/09 02:36:30;;;;;;;38.38;20.35;;;6.50;99.90;;;;;;5024831;28;20112;-76
2024/03/09 02:38:57;;;;;;;34.22;19.38;;;6.60;99.90;;;;;;5026670;28;20072;-77
2024/03/09 02:41:24;;;;;;;40.67;19.73;;;6.50;99.90;;;;;;5024797;28;20036;-77
2024/03/09 02:43:51;;;;;;;36.72;20.23;;;6.60;99.90;;;;;;5022085;28;20132;-77
2024/03/09 02:46:18;;;;;;;38.17;20.92;;;6.60;99.90;;;;;;5001948;28;20093;-77
2024/03/09 02:48:45;;;;;;;42.20;21.50;;;6.60;99.90;;;;;;5005790;28;20025;-77
2024/03/09 02:51:12;;;;;;;40.58;20.60;;;6.60;99.90;;;;;;5018672;28;20414;-77
2024/03/09 02:53:42;;;;;;;41.72;21.75;;;6.70;99.90;;;;;;5020934;28;20072;-77
2024/03/09 02:56:16;;;;;;;35.85;20.45;;;6.60;99.90;;;;;;5006431;28;20017;-77
2024/03/09 02:58:42;;;;;;;37.67;20.70;;;6.60;99.90;;;;;;5012879;28;20037;-77
2024/03/09 03:01:10;;;;;;;43.05;21.70;;;6.70;99.90;;;;;;5013481;28;20466;-77
2024/03/09 03:03:46;;;;;;;37.05;20.25;;;6.70;99.90;;;;;;5032022;28;20558;-77
2024/03/09 03:06:18;;;;;;;40.03;22.13;;;6.70;99.90;;;;;;5031512;28;20018;-77
2024/03/09 03:08:53;;;;;;;39.03;20.02;;;6.70;99.90;;;;;;5014478;28;20128;-77
2024/03/09 03:11:21;;;;;;;39.47;21.75;;;6.70;99.90;;;;;;5031209;28;20462;-77
2024/03/09 03:13:48;;;;;;;39.33;21.48;;;6.70;99.90;;;;;;5032174;28;20020;-78
2024/03/09 03:16:29;;;;;;;40.13;21.80;;;6.80;99.90;;;;;;5031562;28;20030;-78
2024/03/09 03:18:59;;;;;;;35.65;19.67;;;6.70;99.90;;;;;;5013610;28;20030;-78
2024/03/09 03:21:25;;;;;;;34.17;19.08;;;6.70;99.90;;;;;;5035502;28;20029;-78
2024/03/09 03:23:54;;;;;;;35.35;20.17;;;6.70;99.90;;;;;;5036104;28;20040;-78
2024/03/09 03:26:21;;;;;;;34.92;19.52;;;6.80;99.90;;;;;;5036042;28;20425;-77
2024/03/09 03:28:50;;;;;;;35.97;19.00;;;6.70;99.90;;;;;;5034995;28;20025;-77
2024/03/09 03:31:18;;;;;;;36.70;19.63;;;6.70;99.90;;;;;;5034736;28;20573;-77
2024/03/09 03:33:45;;;;;;;39.05;20.20;;;6.70;99.90;;;;;;5018009;28;20025;-77
2024/03/09 03:36:18;;;;;;;36.03;20.63;;;6.70;99.90;;;;;;5035584;28;20041;-77
2024/03/09 03:38:46;;;;;;;38.35;19.70;;;6.70;99.90;;;;;;5034439;28;20021;-77
2024/03/09 03:41:12;;;;;;;40.35;20.75;;;6.70;99.90;;;;;;5016723;28;20390;-78
2024/03/09 03:43:38;;;;;;;42.28;22.45;;;6.60;99.90;;;;;;5015921;28;20042;-78
2024/03/09 03:46:06;;;;;;;33.38;19.45;;;6.70;99.90;;;;;;5034196;28;20029;-77
2024/03/09 03:48:32;;;;;;;39.17;21.77;;;6.60;99.90;;;;;;5033327;28;20030;-78
2024/03/09 03:50:58;;;;;;;35.20;19.52;;;6.70;99.90;;;;;;5016591;28;20021;-78
2024/03/09 03:53:25;;;;;;;35.35;19.67;;;6.70;99.90;;;;;;5034219;28;20143;-77
2024/03/09 03:55:51;;;;;;;34.78;19.75;;;6.60;99.90;;;;;;5016353;28;20025;-77
2024/03/09 03:58:17;;;;;;;37.42;19.38;;;6.70;99.90;;;;;;5033288;28;20650;-77
2024/03/09 04:00:49;;;;;;;34.67;20.40;;;6.60;99.90;;;;;;5013607;28;20035;-77
2024/03/09 04:03:16;;;;;;;36.50;19.25;;;6.70;99.90;;;;;;5032941;28;20041;-77
2024/03/09 04:05:43;;;;;;;36.05;20.05;;;6.60;99.90;;;;;;5033307;28;20497;-77
2024/03/09 04:08:09;;;;;;;35.28;18.55;;;6.60;99.90;;;;;;5032896;28;20033;-77
2024/03/09 04:10:35;;;;;;;38.25;19.88;;;6.60;99.90;;;;;;5033864;28;20104;-77
2024/03/09 04:13:01;;;;;;;34.03;18.88;;;6.60;99.90;;;;;;5032953;28;20267;-77
2024/03/09 04:15:27;;;;;;;37.83;19.35;;;6.70;99.90;;;;;;5033436;28;20021;-77
2024/03/09 04:17:53;;;;;;;33.28;20.20;;;6.70;99.90;;;;;;5033551;28;20424;-77
2024/03/09 04:20:19;;;;;;;34.40;18.85;;;6.70;99.90;;;;;;5033503;28;20026;-77
2024/03/09 04:22:45;;;;;;;36.25;19.77;;;6.70;99.90;;;;;;5033648;28;20083;-77
2024/03/09 04:25:14;;;;;;;33.78;17.52;;;6.60;99.90;;;;;;5033921;28;20049;-77
2024/03/09 04:27:40;;;;;;;33.15;17.77;;;6.70;99.90;;;;;;5015277;28;20021;-77
2024/03/09 04:30:07;;;;;;;32.85;18.52;;;6.80;99.90;;;;;;5033110;28;20032;-77
2024/03/09 04:32:33;;;;;;;32.08;18.13;;;6.80;99.90;;;;;;5033005;28;20029;-77
2024/03/09 04:34:58;;;;;;;30.23;16.95;;;6.70;99.90;;;;;;5033351;28;20037;-77
2024/03/09 04:37:27;;;;;;;31.35;17.52;;;6.70;99.90;;;;;;4975119;28;1175134;-78
2024/03/09 04:39:56;;;;;;;31.92;17.40;;;6.70;99.90;;;;;;5034563;28;20022;-77
2024/03/09 04:42:25;;;;;;;29.65;16.60;;;6.70;99.90;;;;;;5027340;28;20041;-77
2024/03/09 04:44:53;;;;;;;31.17;16.70;;;6.80;99.90;;;;;;5015534;28;20022;-78
2024/03/09 04:47:19;;;;;;;30.90;17.55;;;6.80;99.90;;;;;;5014387;28;20112;-77
2024/03/09 04:49:48;;;;;;;31.65;17.30;;;6.90;99.90;;;;;;4996297;28;20168;-77
2024/03/09 04:52:14;;;;;;;30.23;17.00;;;6.90;99.90;;;;;;5016848;28;20549;-77
2024/03/09 04:54:43;;;;;;;32.80;19.40;;;7.00;99.90;;;;;;5034486;28;20498;-78
2024/03/09 04:57:17;;;;;;;33.25;18.63;;;6.90;99.90;;;;;;5033798;28;20156;-77
2024/03/09 04:59:43;;;;;;;32.20;17.75;;;6.90;99.90;;;;;;5034195;28;20025;-78
2024/03/09 05:02:10;;;;;;;30.80;17.42;;;6.90;99.90;;;;;;5033961;28;20044;-77
2024/03/09 05:04:36;;;;;;;34.45;18.80;;;7.00;99.90;;;;;;5034012;28;20030;-78
2024/03/09 05:07:05;;;;;;;28.83;16.27;;;6.90;99.90;;;;;;5034137;28;20033;-78
2024/03/09 05:09:31;;;;;;;32.85;17.25;;;6.90;99.90;;;;;;5015285;28;20021;-78
2024/03/09 05:11:57;;;;;;;26.25;15.65;;;7.00;99.90;;;;;;5033888;28;20018;-77
2024/03/09 05:14:24;;;;;;;32.05;17.35;;;7.00;99.90;;;;;;5033964;28;20026;-77
2024/03/09 05:16:50;;;;;;;31.13;17.42;;;7.00;99.90;;;;;;5033885;28;20025;-78
2024/03/09 05:19:17;;;;;;;30.05;17.63;;;7.00;99.90;;;;;;5016082;28;20477;-77
2024/03/09 05:21:44;;;;;;;31.77;16.95;;;7.00;99.90;;;;;;5034101;28;20025;-78
2024/03/09 05:24:10;;;;;;;27.88;15.30;;;6.90;99.90;;;;;;5033772;28;20030;-77
2024/03/09 05:26:36;;;;;;;30.85;16.73;;;7.00;99.90;;;;;;5015709;28;20045;-77
2024/03/09 05:29:02;;;;;;;25.52;15.40;;;7.00;99.90;;;;;;5032483;28;20111;-77
2024/03/09 05:31:30;;;;;;;29.92;17.42;;;7.00;99.90;;;;;;5033785;28;20393;-77
2024/03/09 05:33:56;;;;;;;28.15;15.77;;;7.00;99.90;;;;;;5033412;28;20053;-78
2024/03/09 05:36:23;;;;;;;26.77;15.80;;;7.00;99.90;;;;;;5033525;28;20406;-78
2024/03/09 05:38:49;;;;;;;29.13;17.15;;;6.90;99.90;;;;;;5026453;28;20053;-77
2024/03/09 05:41:16;;;;;;;27.90;16.80;;;6.90;99.90;;;;;;5018541;28;20026;-77
2024/03/09 05:43:47;;;;;;;27.73;16.52;;;6.90;99.90;;;;;;5012927;28;20084;-77
2024/03/09 05:46:16;;;;;;;29.90;17.20;;;6.90;99.90;;;;;;5013202;28;20029;-77
2024/03/09 05:48:45;;;;;;;27.55;17.05;;;7.00;99.90;;;;;;5013379;28;20038;-77
2024/03/09 05:51:14;;;;;;;27.35;16.52;;;7.00;99.90;;;;;;5021637;28;20505;-77
2024/03/09 05:53:40;;;;;;;31.88;17.30;;;7.00;99.90;;;;;;5033408;28;20044;-77
2024/03/09 05:56:06;;;;;;;30.38;17.77;;;6.90;99.90;;;;;;5015275;28;20455;-77
2024/03/09 05:58:32;;;;;;;28.10;15.70;;;6.80;99.90;;;;;;5032035;28;20017;-77
2024/03/09 06:00:59;;;;;;;33.58;16.25;;;6.80;99.90;;;;;;5031993;28;20029;-76
2024/03/09 06:03:25;;;;;;;28.33;16.80;;;6.90;99.90;;;;;;5015125;28;20048;-76
2024/03/09 06:05:52;;;;;;;28.95;18.10;;;6.80;99.90;;;;;;5032458;28;20044;-76
2024/03/09 06:08:18;;;;;;;31.98;18.50;;;6.90;99.90;;;;;;5032439;28;20040;-76
2024/03/09 06:10:44;;;;;;;25.90;16.40;;;6.90;99.90;;;;;;5014724;28;20021;-76
2024/03/09 06:13:11;;;;;;;30.52;16.17;;;6.80;99.90;;;;;;5032224;28;20037;-76
2024/03/09 06:15:38;;;;;;;28.48;16.83;;;6.70;99.90;;;;;;5032318;28;20652;-77
2024/03/09 06:18:05;;;;;;;28.10;17.10;;;6.70;99.90;;;;;;5032699;28;20060;-76
2024/03/09 06:20:32;;;;;;;28.10;16.30;;;6.70;99.90;;;;;;5032690;28;20017;-76
2024/03/09 06:22:58;;;;;;;29.77;17.33;;;6.70;99.90;;;;;;5032776;28;20033;-76
2024/03/09 06:25:23;;;;;;;22.67;13.27;;;6.70;99.90;;;;;;5032359;28;20374;-78
2024/03/09 06:27:53;;;;;;;30.60;17.45;;;6.80;99.90;;;;;;5031889;28;20069;-76
2024/03/09 06:30:19;;;;;;;26.20;15.57;;;6.80;99.90;;;;;;5032870;28;20021;-76
2024/03/09 06:32:49;;;;;;;27.45;15.55;;;6.80;99.90;;;;;;5032781;28;20025;-76
2024/03/09 06:35:36;;;;;;;26.52;15.75;;;6.80;99.90;;;;;;5028138;28;20029;-77
2024/03/09 06:38:04;;;;;;;29.23;16.70;;;6.80;99.90;;;;;;5020815;28;20053;-76
2024/03/09 06:40:32;;;;;;;29.25;15.88;;;6.80;99.90;;;;;;5032316;28;20021;-77
2024/03/09 06:42:59;;;;;;;31.23;16.98;;;6.80;99.90;;;;;;5031996;28;20541;-76
2024/03/09 06:45:26;;;;;;;26.02;15.27;;;6.80;99.90;;;;;;5031821;28;20029;-76
2024/03/09 06:47:52;;;;;;;28.17;16.10;;;6.90;99.90;;;;;;5031702;28;20017;-76
2024/03/09 06:50:18;;;;;;;31.05;17.60;;;6.90;99.90;;;;;;5032390;28;20087;-76
2024/03/09 06:52:46;;;;;;;26.65;15.38;;;6.90;99.90;;;;;;5030878;28;20021;-77
2024/03/09 06:55:14;;;;;;;26.98;15.88;;;7.00;99.90;;;;;;5031809;28;20018;-76
2024/03/09 06:57:40;;;;;;;25.90;15.32;;;7.00;99.90;;;;;;5030408;28;20389;-76
2024/03/09 07:00:14;;;;;;;27.20;15.90;;;7.00;99.90;;;;;;5031667;28;20021;-76
2024/03/09 07:02:42;;;;;;;30.35;16.75;;;7.00;99.90;;;;;;5009487;28;20040;-76
2024/03/09 07:05:12;;;;;;;28.50;16.27;;;7.00;99.90;;;;;;5011885;28;20026;-76
2024/03/09 07:07:41;;;;;;;28.02;15.10;;;7.10;99.90;;;;;;5030713;28;20037;-76
2024/03/09 07:10:11;;;;;;;31.75;17.15;;;7.20;99.90;;;;;;5031298;28;20029;-76
2024/03/09 07:12:41;;;;;;;33.00;17.48;;;7.20;99.90;;;;;;5013423;28;20112;-76
2024/03/09 07:15:17;;;;;;;26.33;15.65;;;7.20;99.90;;;;;;5029685;28;20025;-76
2024/03/09 07:17:48;;;;;;;32.15;16.60;;;7.20;99.90;;;;;;5031626;28;20084;-76
2024/03/09 07:20:16;;;;;;;25.65;15.27;;;7.20;99.90;;;;;;5031487;28;20022;-77
2024/03/09 07:22:50;;;;;;;28.08;16.90;;;7.30;99.90;;;;;;5009508;28;20041;-76
2024/03/09 07:25:24;;;;;;;28.55;15.90;;;7.30;99.90;;;;;;5026513;28;20017;-76
2024/03/09 07:27:51;;;;;;;27.98;16.65;;;7.20;99.90;;;;;;5025567;28;20022;-77
2024/03/09 07:30:18;;;;;;;29.33;15.82;;;7.40;99.90;;;;;;5013477;28;20104;-77
2024/03/09 07:32:44;;;;;;;30.60;15.88;;;7.30;99.90;;;;;;5030341;28;20026;-77
2024/03/09 07:35:15;;;;;;;27.30;15.35;;;7.30;99.90;;;;;;5030753;28;20087;-76
2024/03/09 07:38:01;;;;;;;25.88;15.77;;;7.50;99.90;;;;;;5026590;28;20029;-76
2024/03/09 07:40:29;;;;;;;27.95;16.48;;;7.50;99.90;;;;;;5031321;28;20101;-76
2024/03/09 07:42:55;;;;;;;26.48;15.82;;;7.50;99.90;;;;;;5026969;28;20033;-76
2024/03/09 07:45:23;;;;;;;24.20;15.40;;;7.60;99.90;;;;;;5014067;28;20113;-76
2024/03/09 07:47:49;;;;;;;27.98;15.65;;;7.70;99.90;;;;;;5023826;28;20037;-76
2024/03/09 07:50:21;;;;;;;25.48;13.93;;;7.70;99.90;;;;;;5027088;28;20089;-76
2024/03/09 07:52:52;;;;;;;23.85;15.15;;;7.70;99.90;;;;;;5013728;28;20026;-76
2024/03/09 07:55:20;;;;;;;24.23;15.23;;;7.80;99.90;;;;;;5013675;28;20025;-76
2024/03/09 07:57:46;;;;;;;26.20;14.57;;;7.80;99.90;;;;;;5030296;28;20078;-76
2024/03/09 08:00:18;;;;;;;32.30;17.95;;;7.90;99.90;;;;;;5022672;28;20025;-76
2024/03/09 08:02:48;;;;;;;27.77;16.80;;;8.00;99.90;;;;;;5027793;28;20044;-76
2024/03/09 08:05:16;;;;;;;26.73;16.20;;;8.10;99.90;;;;;;5030541;28;20036;-76
2024/03/09 08:07:43;;;;;;;24.52;15.13;;;8.20;99.90;;;;;;5005710;28;20023;-76
2024/03/09 08:10:13;;;;;;;26.27;16.15;;;8.30;99.90;;;;;;5034826;28;20025;-76
2024/03/09 08:12:39;;;;;;;28.05;16.05;;;8.50;99.90;;;;;;5035235;28;20053;-75
2024/03/09 08:15:05;;;;;;;28.23;16.13;;;8.60;99.90;;;;;;5034859;28;20481;-75
2024/03/09 08:17:32;;;;;;;22.70;14.07;;;8.70;99.90;;;;;;5017379;28;20413;-75
2024/03/09 08:20:02;;;;;;;24.20;15.88;;;8.70;99.90;;;;;;5015823;28;20030;-75
2024/03/09 08:22:28;;;;;;;25.40;14.30;;;8.90;99.90;;;;;;5034168;28;20502;-75
2024/03/09 08:24:54;;;;;;;23.05;14.13;;;9.00;99.90;;;;;;5034401;28;20029;-75
2024/03/09 08:27:20;;;;;;;21.55;14.13;;;9.10;99.90;;;;;;5033737;28;20088;-75
2024/03/09 08:29:46;;;;;;;22.63;13.65;;;9.30;99.90;;;;;;5012939;28;20030;-75
2024/03/09 08:32:11;;;;;;;21.73;13.55;;;9.30;99.90;;;;;;5034488;28;20026;-75
2024/03/09 08:34:37;;;;;;;24.08;14.18;;;9.50;99.90;;;;;;5016157;28;20389;-75
2024/03/09 08:37:08;;;;;;;22.50;14.38;;;9.60;99.90;;;;;;5015987;28;20486;-75
2024/03/09 08:39:35;;;;;;;25.45;14.73;;;9.60;99.90;;;;;;5034198;28;20029;-75
2024/03/09 08:42:01;;;;;;;26.08;14.80;;;9.70;99.90;;;;;;5015708;28;20026;-75
2024/03/09 08:44:27;;;;;;;23.35;14.45;;;9.80;99.90;;;;;;5018554;28;20490;-75
2024/03/09 08:46:54;;;;;;;24.58;13.98;;;9.80;99.90;;;;;;5034145;28;20025;-75
2024/03/09 08:49:20;;;;;;;28.02;15.15;;;9.90;99.90;;;;;;5022871;28;20029;-75
2024/03/09 08:51:46;;;;;;;23.35;13.95;;;9.90;99.90;;;;;;5033939;28;20017;-75
2024/03/09 08:54:12;;;;;;;21.30;13.75;;;9.80;99.90;;;;;;5033801;28;20025;-75
2024/03/09 08:56:38;;;;;;;21.73;14.00;;;9.80;99.90;;;;;;5033679;28;20445;-76
2024/03/09 08:59:04;;;;;;;23.08;14.10;;;9.80;99.90;;;;;;5015774;28;20028;-76
2024/03/09 09:01:32;;;;;;;24.10;14.57;;;9.90;99.90;;;;;;5034082;28;20405;-76
2024/03/09 09:04:04;;;;;;;21.77;14.23;;;9.80;99.90;;;;;;5029205;28;20061;-76
2024/03/09 09:06:30;;;;;;;23.02;13.75;;;9.70;99.90;;;;;;5011634;28;20030;-76
2024/03/09 09:08:59;;;;;;;21.70;13.75;;;9.60;99.90;;;;;;5027696;28;20025;-75
2024/03/09 09:11:28;;;;;;;22.25;13.70;;;9.60;99.90;;;;;;5027077;28;20065;-76
2024/03/09 09:13:54;;;;;;;25.48;15.25;;;9.80;99.90;;;;;;5033546;28;20029;-75
2024/03/09 09:16:20;;;;;;;21.48;13.82;;;9.60;99.90;;;;;;5016028;28;20040;-76
2024/03/09 09:18:47;;;;;;;23.73;14.82;;;9.70;99.90;;;;;;5031728;28;20152;-76
2024/03/09 09:21:14;;;;;;;26.13;14.70;;;9.70;99.90;;;;;;5015573;28;20021;-75
2024/03/09 09:23:41;;;;;;;26.73;14.35;;;9.80;99.90;;;;;;5033815;28;20386;-76
2024/03/09 09:26:06;;;;;;;22.60;14.85;;;10.00;99.90;;;;;;5033526;28;20045;-76
2024/03/09 09:28:32;;;;;;;20.65;13.50;;;10.00;99.90;;;;;;5033668;28;20466;-77
2024/03/09 09:30:58;;;;;;;26.60;15.68;;;10.10;99.90;;;;;;5015653;28;20508;-76
2024/03/09 09:33:23;;;;;;;25.05;14.93;;;10.00;99.90;;;;;;5033313;28;20032;-76
2024/03/09 09:35:51;;;;;;;25.42;15.80;;;9.90;99.90;;;;;;5032860;28;20482;-76
2024/03/09 09:38:17;;;;;;;26.55;15.27;;;10.00;99.90;;;;;;5033605;28;20033;-76
2024/03/09 09:40:49;;;;;;;25.42;15.68;;;10.20;99.90;;;;;;5032217;28;20509;-77
2024/03/09 09:43:15;;;;;;;24.30;15.07;;;10.30;99.90;;;;;;5032186;28;20040;-77
2024/03/09 09:45:47;;;;;;;25.58;17.05;;;10.30;99.90;;;;;;5026714;28;20100;-77
2024/03/09 09:48:14;;;;;;;25.85;15.85;;;10.30;99.90;;;;;;5002222;28;20025;-77
2024/03/09 09:50:41;;;;;;;26.58;15.07;;;10.30;99.90;;;;;;5033017;28;20032;-77
2024/03/09 09:53:11;;;;;;;23.05;15.55;;;10.30;99.90;;;;;;5032993;28;20017;-77
2024/03/09 09:55:37;;;;;;;24.90;15.25;;;10.30;99.90;;;;;;5015159;28;20021;-77
2024/03/09 09:58:04;;;;;;;24.25;14.90;;;10.30;99.90;;;;;;5013253;28;20120;-76
2024/03/09 10:00:31;;;;;;;23.90;14.80;;;10.30;99.90;;;;;;5026652;28;20021;-77
2024/03/09 10:02:58;;;;;;;24.40;16.13;;;10.30;99.90;;;;;;5032781;28;20045;-77
2024/03/09 10:05:28;;;;;;;30.40;13.73;;;10.30;99.90;;;;;;5032915;28;20462;-77
2024/03/09 10:08:04;;;;;;;27.42;14.77;;;10.40;99.90;;;;;;5032438;28;20053;-77
2024/03/09 10:10:31;;;;;;;23.83;14.95;;;10.50;99.90;;;;;;5028585;28;20075;-77
2024/03/09 10:13:11;;;;;;;24.08;15.43;;;10.70;99.90;;;;;;5022385;28;20121;-77
2024/03/09 10:15:40;;;;;;;22.65;14.18;;;10.90;99.90;;;;;;5026206;28;20021;-77
2024/03/09 10:18:07;;;;;;;23.02;15.23;;;11.00;99.90;;;;;;5020961;28;20029;-77
2024/03/09 10:20:35;;;;;;;26.17;15.65;;;10.90;99.90;;;;;;5024850;28;20022;-76
2024/03/09 10:23:08;;;;;;;25.00;14.95;;;10.80;99.90;;;;;;5032689;28;20029;-77
2024/03/09 10:25:37;;;;;;;24.15;14.20;;;10.90;99.90;;;;;;5031743;28;20108;-76
2024/03/09 10:28:07;;;;;;;22.17;14.27;;;10.90;99.90;;;;;;5021374;28;20033;-75
2024/03/09 10:30:37;;;;;;;20.73;14.07;;;10.80;99.90;;;;;;5013170;28;20128;-77
2024/03/09 10:33:09;;;;;;;21.98;14.32;;;11.00;99.90;;;;;;5006114;28;20025;-78
2024/03/09 10:35:40;;;;;;;24.23;14.93;;;11.00;99.90;;;;;;5018323;28;20037;-74
2024/03/09 10:38:08;;;;;;;21.98;14.48;;;11.10;99.90;;;;;;5018219;28;20022;-75
2024/03/09 10:40:34;;;;;;;25.10;14.60;;;11.20;99.90;;;;;;5002386;28;20475;-74
2024/03/09 10:43:03;;;;;;;24.05;14.40;;;11.10;99.90;;;;;;5018003;28;20506;-76
2024/03/09 10:45:33;;;;;;;24.65;14.23;;;11.10;99.90;;;;;;5015668;28;20356;-74
2024/03/09 10:48:05;;;;;;;20.35;13.30;;;11.10;99.90;;;;;;5014304;28;20113;-74
2024/03/09 10:50:38;;;;;;;21.80;13.98;;;11.30;99.90;;;;;;5020005;28;20037;-74
2024/03/09 10:53:07;;;;;;;22.60;14.27;;;11.30;99.90;;;;;;5001259;28;20037;-75
2024/03/09 10:55:52;;;;;;;24.48;13.75;;;11.20;99.90;;;;;;5011745;28;20631;-75
2024/03/09 10:58:20;;;;;;;23.17;15.05;;;11.20;99.90;;;;;;5022097;28;20037;-75
2024/03/09 11:00:49;;;;;;;21.10;13.38;;;11.30;99.90;;;;;;5018203;28;20029;-77
2024/03/09 11:03:20;;;;;;;20.80;14.20;;;11.30;99.90;;;;;;4999625;28;20045;-75
2024/03/09 11:05:46;;;;;;;24.23;14.95;;;11.50;99.90;;;;;;5022228;28;20029;-75
2024/03/09 11:08:13;;;;;;;21.48;14.52;;;11.50;99.90;;;;;;5002840;28;20022;-74
2024/03/09 11:10:41;;;;;;;21.13;13.52;;;11.50;99.90;;;;;;5021402;28;20601;-74
2024/03/09 11:13:11;;;;;;;22.92;14.45;;;11.60;99.90;;;;;;5004934;28;20494;-74
2024/03/09 11:15:37;;;;;;;25.20;15.38;;;11.50;99.90;;;;;;5017646;28;20014;-73
2024/03/09 11:18:10;;;;;;;24.00;14.10;;;11.80;99.90;;;;;;5019555;28;20029;-74
2024/03/09 11:20:59;;;;;;;22.77;15.18;;;11.80;99.90;;;;;;5019214;28;20113;-73
2024/03/09 11:23:25;;;;;;;24.20;15.10;;;11.90;99.90;;;;;;5020951;28;20033;-74
2024/03/09 11:25:55;;;;;;;24.55;16.30;;;11.90;99.90;;;;;;5016985;28;20049;-74
2024/03/09 11:28:27;;;;;;;27.50;15.80;;;11.70;99.90;;;;;;5019049;28;20065;-75
2024/03/09 11:31:10;;;;;;;24.58;14.95;;;11.70;99.90;;;;;;5016966;28;20124;-74
2024/03/09 11:34:17;;;;;;;26.80;16.00;;;11.60;99.90;;;;;;5018344;28;20108;-75
2024/03/09 11:36:51;;;;;;;27.60;15.82;;;11.70;99.90;;;;;;5018659;28;20053;-75
2024/03/09 11:39:22;;;;;;;25.27;15.23;;;11.80;99.90;;;;;;5020818;28;20510;-74
2024/03/09 11:41:49;;;;;;;24.27;15.57;;;11.70;99.90;;;;;;5022193;28;20052;-74
2024/03/09 11:44:22;;;;;;;21.85;14.57;;;11.70;99.90;;;;;;5020131;28;20079;-74
2024/03/09 11:46:50;;;;;;;24.98;15.50;;;11.70;99.90;;;;;;5023963;28;20076;-75
2024/03/09 11:49:16;;;;;;;24.02;14.85;;;11.60;99.90;;;;;;5021066;28;20030;-75
2024/03/09 11:51:43;;;;;;;24.10;15.13;;;11.60;99.90;;;;;;5019973;28;20030;-75
2024/03/09 11:54:13;;;;;;;24.83;15.25;;;11.60;99.90;;;;;;5026097;28;20508;-74
2024/03/09 11:56:41;;;;;;;23.13;14.80;;;11.70;99.90;;;;;;5022903;28;20041;-74
2024/03/09 11:59:07;;;;;;;23.55;14.60;;;11.70;99.90;;;;;;5019315;28;20056;-74
2024/03/09 12:01:39;;;;;;;22.25;14.55;;;11.80;99.90;;;;;;5020398;28;20430;-76
2024/03/09 12:04:06;;;;;;;25.55;16.48;;;11.90;99.90;;;;;;5009069;28;20041;-75
2024/03/09 12:06:33;;;;;;;23.70;15.15;;;12.00;99.90;;;;;;5001648;28;20030;-75
2024/03/09 12:08:59;;;;;;;24.27;14.82;;;12.10;99.90;;;;;;5004142;28;20013;-76
2024/03/09 12:11:34;;;;;;;24.15;14.68;;;12.20;99.90;;;;;;5004015;28;20033;-75
2024/03/09 12:14:00;;;;;;;21.98;14.98;;;12.20;99.90;;;;;;5022403;28;20025;-74
2024/03/09 12:16:28;;;;;;;23.67;14.93;;;12.20;99.90;;;;;;5021390;28;20029;-75
2024/03/09 12:18:59;;;;;;;23.05;14.55;;;12.20;99.90;;;;;;5023006;28;20022;-75
2024/03/09 12:21:26;;;;;;;19.63;13.05;;;12.10;99.90;;;;;;5003025;28;20025;-78
2024/03/09 12:23:54;;;;;;;24.52;15.20;;;12.10;99.90;;;;;;5003762;28;20025;-75
2024/03/09 12:26:23;;;;;;;21.77;15.43;;;12.00;99.90;;;;;;5020995;28;20040;-76
2024/03/09 12:28:50;;;;;;;21.02;14.10;;;12.10;99.90;;;;;;5024075;28;20032;-76
2024/03/09 12:31:16;;;;;;;24.65;14.50;;;12.10;99.90;;;;;;5024734;28;20389;-76
2024/03/09 12:33:44;;;;;;;22.05;14.98;;;12.10;99.90;;;;;;5008170;28;20033;-75
2024/03/09 12:36:10;;;;;;;22.48;14.68;;;12.20;99.90;;;;;;5005885;28;20037;-74
2024/03/09 12:38:37;;;;;;;24.80;14.73;;;12.20;99.90;;;;;;5006221;28;20042;-73